Time;durP1;ratioP1;P1;durP2;ratioP2;P2;SDS_P1;SDS_P2;PMS_P1;PMS_P2;Temp;Humidity;BMP_temperature;BMP_pressure;BME280_temperature;BME280_humidity;BME280_pressure;Samples;Min_cycle;Max_cycle;Signal;HPM_P1;HPM_P2
2021/01/29 00:00:23;;;;;;;0.50;0.40;;;10.80;99.90;;;;;;5090794;28;20439;-77
2021/01/29 00:02:51;;;;;;;0.50;0.30;;;10.40;99.90;;;;;;5091138;28;20769;-78
2021/01/29 00:05:17;;;;;;;0.40;0.30;;;11.70;99.90;;;;;;5090451;28;20412;-76
2021/01/29 00:07:43;;;;;;;0.53;0.30;;;11.30;99.90;;;;;;5090812;28;20385;-76
2021/01/29 00:10:11;;;;;;;0.57;0.40;;;11.10;99.90;;;;;;5090998;28;20481;-76
2021/01/29 00:12:36;;;;;;;0.50;0.30;;;10.60;99.90;;;;;;5091061;28;20424;-76
2021/01/29 00:15:05;;;;;;;1.20;0.60;;;10.70;99.90;;;;;;5090894;28;20819;-77
2021/01/29 00:17:31;;;;;;;2.50;0.60;;;10.60;99.90;;;;;;5090024;28;20862;-75
2021/01/29 00:19:56;;;;;;;0.63;0.50;;;11.50;99.90;;;;;;5090811;28;20434;-75
2021/01/29 00:22:22;;;;;;;0.70;0.40;;;10.90;99.90;;;;;;5090436;28;20378;-75
2021/01/29 00:24:47;;;;;;;0.70;0.50;;;11.50;99.90;;;;;;5090841;28;20378;-75
2021/01/29 00:27:14;;;;;;;0.80;0.50;;;10.90;99.90;;;;;;5090519;28;20374;-75
2021/01/29 00:29:39;;;;;;;1.00;0.40;;;11.30;99.90;;;;;;5090864;28;20880;-75
2021/01/29 00:32:05;;;;;;;1.30;0.40;;;11.50;99.90;;;;;;5091016;28;20467;-77
2021/01/29 00:34:31;;;;;;;1.70;0.60;;;11.10;99.90;;;;;;5089924;28;20619;-75
2021/01/29 00:36:57;;;;;;;1.30;0.40;;;;;;;;;;5090808;28;20394;-75
2021/01/29 00:39:22;;;;;;;0.70;0.50;;;10.70;99.90;;;;;;5090455;28;20757;-75
2021/01/29 00:41:48;;;;;;;0.50;0.40;;;11.20;99.90;;;;;;5090987;28;20409;-76
2021/01/29 00:44:14;;;;;;;0.60;0.60;;;11.90;99.90;;;;;;5090331;28;20799;-76
2021/01/29 00:46:39;;;;;;;0.50;0.40;;;11.50;99.90;;;;;;5090506;28;20739;-75
2021/01/29 00:49:05;;;;;;;1.00;0.80;;;10.80;99.90;;;;;;5090631;28;20474;-75
2021/01/29 00:51:30;;;;;;;0.50;0.50;;;10.80;99.90;;;;;;5089914;28;20374;-76
2021/01/29 00:53:56;;;;;;;0.60;0.50;;;11.40;99.90;;;;;;5090710;28;20374;-75
2021/01/29 00:56:21;;;;;;;0.80;0.70;;;10.90;99.90;;;;;;5089553;28;20533;-76
2021/01/29 00:58:47;;;;;;;0.70;0.50;;;11.70;99.90;;;;;;5090762;28;20382;-76
2021/01/29 01:01:14;;;;;;;1.67;0.60;;;10.90;99.90;;;;;;5090924;28;20405;-77
2021/01/29 01:03:40;;;;;;;0.90;0.40;;;11.20;99.90;;;;;;5094641;28;20738;-78
2021/01/29 01:06:06;;;;;;;0.80;0.60;;;12.60;99.90;;;;;;5094249;28;20726;-78
2021/01/29 01:08:32;;;;;;;0.70;0.60;;;11.10;99.90;;;;;;5109274;28;20382;-80
2021/01/29 01:10:57;;;;;;;0.90;0.50;;;11.10;99.90;;;;;;5094671;28;20378;-79
2021/01/29 01:13:23;;;;;;;0.93;0.50;;;11.10;99.90;;;;;;5093685;28;20382;-76
2021/01/29 01:15:49;;;;;;;1.50;0.70;;;11.00;99.90;;;;;;5094216;28;20374;-77
2021/01/29 01:18:14;;;;;;;0.90;0.50;;;10.80;99.90;;;;;;5093312;28;20390;-77
2021/01/29 01:20:40;;;;;;;0.70;0.70;;;11.50;99.90;;;;;;5094150;28;20380;-78
2021/01/29 01:23:06;;;;;;;1.75;0.55;;;11.00;99.90;;;;;;5093707;28;20378;-77
2021/01/29 01:25:31;;;;;;;1.20;0.60;;;11.40;99.90;;;;;;5093364;28;20366;-76
2021/01/29 01:27:58;;;;;;;0.90;0.60;;;11.40;99.90;;;;;;5094129;28;20435;-77
2021/01/29 01:30:34;;;;;;;1.90;0.70;;;11.50;99.90;;;;;;5093335;28;20476;-77
2021/01/29 01:33:00;;;;;;;0.67;0.57;;;10.60;99.90;;;;;;5093797;28;20389;-76
2021/01/29 01:35:26;;;;;;;0.80;0.50;;;10.80;99.90;;;;;;5092943;28;20804;-78
2021/01/29 01:37:53;;;;;;;1.10;0.43;;;11.20;99.90;;;;;;5094002;28;20534;-77
2021/01/29 01:40:23;;;;;;;1.10;0.43;;;11.30;99.90;;;;;;5093089;28;20387;-77
2021/01/29 01:42:48;;;;;;;0.60;0.40;;;11.20;99.90;;;;;;5093779;28;20846;-77
2021/01/29 01:45:26;;;;;;;0.80;0.60;;;10.90;99.90;;;;;;5093585;28;20389;-77
2021/01/29 01:48:00;;;;;;;0.40;0.30;;;11.70;99.90;;;;;;5093507;28;20390;-77
2021/01/29 01:50:36;;;;;;;1.00;0.50;;;10.60;99.90;;;;;;5093247;28;20382;-77
2021/01/29 01:53:04;;;;;;;0.73;0.40;;;10.20;99.90;;;;;;5093633;28;20386;-78
2021/01/29 01:55:33;;;;;;;1.20;0.40;;;10.80;99.90;;;;;;5092790;28;20465;-75
2021/01/29 01:57:59;;;;;;;0.50;0.40;;;11.40;99.90;;;;;;5093386;28;20437;-76
2021/01/29 02:00:28;;;;;;;0.60;0.50;;;11.30;99.90;;;;;;5092711;28;20413;-76
2021/01/29 02:03:15;;;;;;;0.40;0.30;;;10.90;99.90;;;;;;5093121;28;20378;-75
2021/01/29 02:05:41;;;;;;;0.40;0.30;;;10.60;99.90;;;;;;5092366;28;20404;-75
2021/01/29 02:08:15;;;;;;;0.60;0.30;;;11.60;99.90;;;;;;5093246;28;20383;-77
2021/01/29 02:10:41;;;;;;;1.80;0.40;;;11.60;99.90;;;;;;5092596;28;20484;-77
2021/01/29 02:13:08;;;;;;;0.90;0.40;;;12.00;99.90;;;;;;5092163;28;20835;-76
2021/01/29 02:15:37;;;;;;;0.50;0.38;;;11.40;99.90;;;;;;5092405;28;20374;-77
2021/01/29 02:18:20;;;;;;;0.40;0.30;;;11.10;99.90;;;;;;5093004;28;20417;-76
2021/01/29 02:21:00;;;;;;;0.90;0.40;;;10.30;99.90;;;;;;5093136;28;20389;-79
2021/01/29 02:23:50;;;;;;;0.50;0.30;;;11.70;99.90;;;;;;5093010;28;20378;-79
2021/01/29 02:26:27;;;;;;;0.52;0.35;;;10.70;99.90;;;;;;5093176;28;20401;-77
2021/01/29 02:29:14;;;;;;;0.63;0.35;;;11.00;99.90;;;;;;5093120;28;20378;-76
2021/01/29 02:32:24;;;;;;;0.40;0.20;;;10.50;99.90;;;;;;5092095;28;20383;-78
2021/01/29 02:34:59;;;;;;;0.55;0.25;;;12.60;99.90;;;;;;5092921;28;20410;-77
2021/01/29 02:37:43;;;;;;;0.60;0.30;;;10.80;99.90;;;;;;5092024;28;20412;-75
2021/01/29 02:40:16;;;;;;;0.70;0.40;;;10.70;99.90;;;;;;5092658;28;20443;-73
2021/01/29 02:43:05;;;;;;;0.50;0.30;;;11.10;99.90;;;;;;5091952;28;20374;-76
2021/01/29 02:45:40;;;;;;;0.50;0.30;;;11.00;99.90;;;;;;5091732;28;20400;-75
2021/01/29 02:48:34;;;;;;;0.40;0.30;;;10.60;99.90;;;;;;5092272;28;20382;-75
2021/01/29 02:51:08;;;;;;;0.40;0.30;;;10.50;99.90;;;;;;5092205;28;20740;-75
2021/01/29 02:53:40;;;;;;;0.40;0.30;;;10.40;99.90;;;;;;5091710;28;20386;-75
2021/01/29 02:56:05;;;;;;;0.60;0.30;;;10.30;99.90;;;;;;5092446;28;20558;-75
2021/01/29 02:58:48;;;;;;;0.50;0.40;;;11.60;99.90;;;;;;5091396;28;20390;-76
2021/01/29 03:01:23;;;;;;;0.60;0.30;;;10.90;99.90;;;;;;5107810;28;20467;-76
2021/01/29 03:04:03;;;;;;;1.50;0.30;;;10.10;99.90;;;;;;5092466;28;20439;-77
2021/01/29 03:06:47;;;;;;;0.40;0.20;;;10.20;99.90;;;;;;5091180;28;20772;-77
2021/01/29 03:09:36;;;;;;;0.40;0.30;;;10.70;99.90;;;;;;5092167;28;20442;-78
2021/01/29 03:12:09;;;;;;;0.45;0.20;;;10.10;99.90;;;;;;5080694;28;20404;-78
2021/01/29 03:14:45;;;;;;;0.40;0.30;;;10.50;99.90;;;;;;5091843;28;20385;-77
2021/01/29 03:17:30;;;;;;;0.40;0.30;;;10.20;99.90;;;;;;5091800;28;20434;-78
2021/01/29 03:20:40;;;;;;;0.40;0.20;;;10.30;99.90;;;;;;5073858;28;20874;-77
2021/01/29 03:23:15;;;;;;;0.40;0.20;;;10.00;99.90;;;;;;5009711;28;20428;-77
2021/01/29 03:25:45;;;;;;;0.70;0.20;;;12.00;99.90;;;;;;5058387;28;20390;-77
2021/01/29 03:28:17;;;;;;;0.57;0.20;;;10.40;99.90;;;;;;5093663;28;20393;-76
2021/01/29 03:30:48;;;;;;;0.50;0.30;;;10.70;99.90;;;;;;5091327;28;20366;-77
2021/01/29 03:33:16;;;;;;;0.55;0.28;;;11.00;99.90;;;;;;5091452;28;20390;-77
2021/01/29 03:35:47;;;;;;;0.40;0.20;;;10.30;99.90;;;;;;5090984;28;20413;-77
2021/01/29 03:38:34;;;;;;;0.40;0.20;;;10.40;99.90;;;;;;5091599;28;20858;-77
2021/01/29 03:41:32;;;;;;;0.40;0.20;;;10.10;99.90;;;;;;5091835;28;20387;-77
2021/01/29 03:44:02;;;;;;;0.60;0.30;;;10.50;99.90;;;;;;5090595;28;20396;-78
2021/01/29 03:46:51;;;;;;;0.40;0.20;;;10.60;99.90;;;;;;5091025;28;20433;-78
2021/01/29 03:49:41;;;;;;;0.40;0.20;;;10.30;99.90;;;;;;5091387;28;20393;-77
2021/01/29 03:52:31;;;;;;;0.40;0.20;;;10.80;99.90;;;;;;5091338;28;20494;-77
2021/01/29 03:55:24;;;;;;;0.40;0.20;;;10.80;99.90;;;;;;5091569;28;20390;-78
2021/01/29 03:58:12;;;;;;;0.40;0.20;;;10.40;99.90;;;;;;5091256;28;20402;-77
2021/01/29 04:00:52;;;;;;;0.50;0.20;;;11.40;99.90;;;;;;5090679;28;20414;-77
2021/01/29 04:03:21;;;;;;;0.40;0.20;;;10.60;99.90;;;;;;5090774;28;20509;-77
2021/01/29 04:06:08;;;;;;;0.40;0.20;;;10.90;99.90;;;;;;5090983;28;20730;-77
2021/01/29 04:09:15;;;;;;;0.40;0.20;;;10.70;99.90;;;;;;5090657;28;20378;-78
2021/01/29 04:11:51;;;;;;;0.40;0.20;;;11.00;99.90;;;;;;5090374;28;20855;-76
2021/01/29 04:14:49;;;;;;;0.40;0.20;;;11.30;99.90;;;;;;5091298;28;20469;-76
2021/01/29 04:17:21;;;;;;;0.40;0.20;;;11.00;99.90;;;;;;5071588;28;20405;-76
2021/01/29 04:19:50;;;;;;;0.40;0.20;;;10.70;99.90;;;;;;5090395;28;20374;-76
2021/01/29 04:22:27;;;;;;;1.00;0.20;;;11.70;99.90;;;;;;5091124;28;20510;-77
2021/01/29 04:25:02;;;;;;;0.40;0.20;;;11.30;99.90;;;;;;5091165;28;20843;-76
2021/01/29 04:27:34;;;;;;;0.40;0.20;;;11.60;99.90;;;;;;5090393;28;20771;-76
2021/01/29 04:30:09;;;;;;;0.40;0.20;;;11.00;99.90;;;;;;5091092;28;20467;-76
2021/01/29 04:32:41;;;;;;;0.40;0.20;;;11.20;99.90;;;;;;5090181;28;20408;-76
2021/01/29 04:35:10;;;;;;;0.40;0.20;;;11.60;99.90;;;;;;5090709;28;20776;-76
2021/01/29 04:37:42;;;;;;;0.40;0.20;;;11.00;99.90;;;;;;5093306;28;20903;-76
2021/01/29 04:40:51;;;;;;;0.40;0.20;;;11.50;99.90;;;;;;5095225;28;20730;-76
2021/01/29 04:43:35;;;;;;;0.50;0.30;;;11.10;99.90;;;;;;5072973;28;20396;-76
2021/01/29 04:46:19;;;;;;;0.40;0.20;;;11.10;99.90;;;;;;5094984;28;20720;-76
2021/01/29 04:48:59;;;;;;;0.40;0.20;;;11.40;99.90;;;;;;5094157;28;20389;-77
2021/01/29 04:51:54;;;;;;;0.40;0.30;;;10.40;99.90;;;;;;5094580;28;20858;-77
2021/01/29 04:54:34;;;;;;;0.50;0.20;;;11.40;99.90;;;;;;5094907;28;20386;-76
2021/01/29 04:57:23;;;;;;;0.40;0.20;;;10.90;99.90;;;;;;5094785;28;20452;-76
2021/01/29 05:00:04;;;;;;;0.40;0.30;;;11.00;99.90;;;;;;5093713;28;20378;-76
2021/01/29 05:03:04;;;;;;;0.43;0.20;;;11.50;99.90;;;;;;5094114;28;20401;-75
2021/01/29 05:06:00;;;;;;;0.40;0.30;;;11.90;99.90;;;;;;5079398;28;20402;-76
2021/01/29 05:08:31;;;;;;;0.40;0.20;;;11.30;99.90;;;;;;5094772;28;20382;-75
2021/01/29 05:11:41;;;;;;;0.60;0.30;;;11.30;99.90;;;;;;5094637;28;20378;-75
2021/01/29 05:14:34;;;;;;;0.40;0.30;;;11.30;99.90;;;;;;5094663;28;20876;-75
2021/01/29 05:17:35;;;;;;;0.40;0.30;;;11.30;99.90;;;;;;5094234;28;20761;-76
2021/01/29 05:20:30;;;;;;;0.50;0.40;;;11.20;99.90;;;;;;5063112;28;20402;-77
2021/01/29 05:23:51;;;;;;;0.40;0.30;;;11.00;99.90;;;;;;5094945;28;20403;-75
2021/01/29 05:26:53;;;;;;;0.40;0.30;;;11.30;99.90;;;;;;4962947;28;20404;-74
2021/01/29 05:29:50;;;;;;;0.40;0.30;;;11.00;99.90;;;;;;5094363;28;20386;-74
2021/01/29 05:32:31;;;;;;;0.52;0.40;;;11.40;99.90;;;;;;5094173;28;20397;-76
2021/01/29 05:35:12;;;;;;;0.40;0.30;;;11.70;99.90;;;;;;5093940;28;20410;-77
2021/01/29 05:37:52;;;;;;;0.50;0.30;;;11.40;99.90;;;;;;5093535;28;20435;-76
2021/01/29 05:40:45;;;;;;;0.60;0.30;;;11.80;99.90;;;;;;5094338;28;20843;-75
2021/01/29 05:43:41;;;;;;;0.40;0.20;;;11.40;99.90;;;;;;5093801;28;20378;-77
2021/01/29 05:46:34;;;;;;;0.40;0.30;;;11.70;99.90;;;;;;5094094;28;20382;-76
2021/01/29 05:49:23;;;;;;;0.50;0.40;;;11.30;99.90;;;;;;5084121;28;20390;-77
2021/01/29 05:52:13;;;;;;;0.50;0.40;;;12.00;99.90;;;;;;5093481;28;20398;-77
2021/01/29 05:55:11;;;;;;;0.60;0.30;;;11.60;99.90;;;;;;5081148;28;20751;-78
2021/01/29 05:58:19;;;;;;;0.50;0.40;;;11.60;99.90;;;;;;5037018;28;20420;-90
2021/01/29 06:01:13;;;;;;;0.60;0.40;;;11.20;99.90;;;;;;5102128;28;20432;-81
2021/01/29 06:04:03;;;;;;;1.30;0.50;;;10.60;99.90;;;;;;5107555;28;20782;-83
2021/01/29 06:06:33;;;;;;;1.00;0.50;;;11.00;99.90;;;;;;5105464;28;20486;-77
2021/01/29 06:09:02;;;;;;;0.43;0.30;;;11.20;99.90;;;;;;5092893;28;20416;-78
2021/01/29 06:11:55;;;;;;;0.40;0.40;;;11.10;99.90;;;;;;5092880;28;20379;-79
2021/01/29 06:14:55;;;;;;;0.50;0.30;;;10.50;99.90;;;;;;5091580;28;20380;-80
2021/01/29 06:17:58;;;;;;;0.80;0.50;;;10.80;99.90;;;;;;5091792;28;20891;-79
2021/01/29 06:20:51;;;;;;;1.80;0.50;;;10.30;99.90;;;;;;5092016;28;20447;-78
2021/01/29 06:23:54;;;;;;;0.57;0.30;;;10.60;99.90;;;;;;5091366;28;20385;-78
2021/01/29 06:26:27;;;;;;;0.88;0.47;;;10.50;99.90;;;;;;5091560;28;20453;-78
2021/01/29 06:28:56;;;;;;;0.40;0.30;;;;;;;;;;5090060;28;20715;-79
2021/01/29 06:31:59;;;;;;;1.52;0.40;;;10.40;99.90;;;;;;5074747;28;20386;-78
2021/01/29 06:34:47;;;;;;;0.50;0.40;;;10.50;99.90;;;;;;5092909;28;20402;-78
2021/01/29 06:37:25;;;;;;;0.50;0.40;;;10.30;99.90;;;;;;5092776;28;20402;-78
2021/01/29 06:40:12;;;;;;;1.00;0.40;;;10.40;99.90;;;;;;5091755;28;20470;-79
2021/01/29 06:43:10;;;;;;;0.40;0.30;;;10.40;99.90;;;;;;5091971;28;20381;-79
2021/01/29 06:46:04;;;;;;;0.70;0.38;;;11.30;99.90;;;;;;5077059;28;20399;-79
2021/01/29 06:48:38;;;;;;;0.40;0.30;;;10.60;99.90;;;;;;5092337;28;20498;-79
2021/01/29 06:51:33;;;;;;;0.50;0.40;;;11.20;99.90;;;;;;5092547;28;20377;-79
2021/01/29 06:54:13;;;;;;;0.40;0.30;;;11.00;99.90;;;;;;5091407;28;20375;-79
2021/01/29 06:56:48;;;;;;;0.70;0.40;;;10.80;99.90;;;;;;5091548;28;20434;-79
2021/01/29 06:59:39;;;;;;;0.60;0.40;;;10.50;99.90;;;;;;5094624;28;20865;-78
2021/01/29 07:02:04;;;;;;;2.28;0.60;;;10.60;99.90;;;;;;5092700;28;20385;-78
2021/01/29 07:04:58;;;;;;;0.40;0.40;;;10.50;99.90;;;;;;5091741;28;20382;-78
2021/01/29 07:07:49;;;;;;;0.70;0.40;;;10.30;99.90;;;;;;5095815;28;20481;-75
2021/01/29 07:10:39;;;;;;;1.10;0.70;;;10.40;99.90;;;;;;5071480;28;20394;-74
2021/01/29 07:13:37;;;;;;;1.70;0.60;;;10.60;99.90;;;;;;5080266;28;20408;-74
2021/01/29 07:16:17;;;;;;;0.60;0.53;;;10.30;99.90;;;;;;5042120;28;20447;-74
2021/01/29 07:18:55;;;;;;;1.50;0.60;;;10.30;99.90;;;;;;5080965;28;20442;-74
2021/01/29 07:21:50;;;;;;;0.60;0.60;;;11.30;99.90;;;;;;5082518;28;20388;-76
2021/01/29 07:24:34;;;;;;;1.05;0.55;;;10.50;99.90;;;;;;5026463;28;20954;-76
2021/01/29 07:27:16;;;;;;;1.30;0.68;;;10.50;99.90;;;;;;5082220;28;20724;-76
2021/01/29 07:29:57;;;;;;;1.60;0.40;;;10.60;99.90;;;;;;5080905;28;20889;-76
2021/01/29 07:32:51;;;;;;;1.30;0.60;;;10.50;99.90;;;;;;5078322;28;20402;-75
2021/01/29 07:35:55;;;;;;;1.00;0.30;;;10.50;99.90;;;;;;5077127;28;20443;-76
2021/01/29 07:38:56;;;;;;;0.50;0.40;;;10.40;99.90;;;;;;4970894;28;20406;-76
2021/01/29 07:41:37;;;;;;;0.70;0.50;;;10.60;99.90;;;;;;4969642;28;20816;-76
2021/01/29 07:44:13;;;;;;;0.40;0.40;;;10.90;99.90;;;;;;5056056;28;20483;-76
2021/01/29 07:47:10;;;;;;;1.05;0.45;;;11.20;99.90;;;;;;5081232;28;20922;-78
2021/01/29 07:49:55;;;;;;;0.80;0.55;;;10.70;99.90;;;;;;5081100;28;20486;-80
2021/01/29 07:52:38;;;;;;;0.50;0.40;;;10.70;99.90;;;;;;5080053;28;20386;-81
2021/01/29 07:55:29;;;;;;;0.73;0.40;;;10.50;99.90;;;;;;5082883;28;20390;-78
2021/01/29 07:58:31;;;;;;;1.25;0.50;;;10.60;99.90;;;;;;5082204;28;21134;-79
2021/01/29 08:01:25;;;;;;;0.40;0.30;;;10.80;99.90;;;;;;5082672;28;20398;-79
2021/01/29 08:04:12;;;;;;;0.80;0.30;;;10.80;99.90;;;;;;5080633;28;20401;-78
2021/01/29 08:06:55;;;;;;;0.50;0.40;;;10.90;99.90;;;;;;5083644;28;20410;-78
2021/01/29 08:09:30;;;;;;;0.50;0.30;;;10.80;99.90;;;;;;5083612;28;20390;-80
2021/01/29 08:12:01;;;;;;;0.50;0.30;;;10.70;99.90;;;;;;5081212;28;20397;-78
2021/01/29 08:14:51;;;;;;;0.40;0.30;;;10.90;99.90;;;;;;5080797;28;20378;-78
2021/01/29 08:17:44;;;;;;;0.60;0.40;;;10.60;99.90;;;;;;5080295;28;20732;-76
2021/01/29 08:20:16;;;;;;;0.40;0.30;;;11.00;99.90;;;;;;5079183;28;20394;-77
2021/01/29 08:23:09;;;;;;;0.57;0.40;;;10.80;99.90;;;;;;5081665;28;20405;-78
2021/01/29 08:26:00;;;;;;;0.60;0.40;;;10.80;99.90;;;;;;5080748;28;20449;-77
2021/01/29 08:28:53;;;;;;;0.80;0.50;;;10.70;99.90;;;;;;5061965;28;21821;-78
2021/01/29 08:31:22;;;;;;;1.00;0.40;;;10.90;99.90;;;;;;5080063;28;20873;-76
2021/01/29 08:34:06;;;;;;;0.60;0.40;;;10.90;99.90;;;;;;5078867;28;20467;-74
2021/01/29 08:36:57;;;;;;;0.60;0.30;;;11.00;99.90;;;;;;5081538;28;20415;-76
2021/01/29 08:39:26;;;;;;;0.80;0.40;;;11.00;99.90;;;;;;5063640;28;20386;-79
2021/01/29 08:42:07;;;;;;;0.70;0.30;;;11.40;99.90;;;;;;5078151;28;20723;-79
2021/01/29 08:44:35;;;;;;;0.70;0.40;;;11.30;99.90;;;;;;5079000;28;20408;-79
2021/01/29 08:47:16;;;;;;;1.17;0.50;;;11.10;99.90;;;;;;5081336;28;20767;-79
2021/01/29 08:50:07;;;;;;;0.82;0.40;;;10.90;99.90;;;;;;5081764;28;20387;-78
2021/01/29 08:52:48;;;;;;;0.50;0.40;;;11.00;99.90;;;;;;5079965;28;20374;-79
2021/01/29 08:55:28;;;;;;;0.40;0.30;;;10.80;99.90;;;;;;5063702;28;20390;-77
2021/01/29 08:58:02;;;;;;;0.60;0.40;;;10.90;99.90;;;;;;5079895;28;20478;-77
2021/01/29 09:00:31;;;;;;;0.90;0.30;;;10.60;99.90;;;;;;5079792;28;20704;-77
2021/01/29 09:03:15;;;;;;;0.60;0.30;;;10.90;99.90;;;;;;5078761;28;20398;-81
2021/01/29 09:05:44;;;;;;;0.98;0.50;;;10.50;99.90;;;;;;5081230;28;20386;-81
2021/01/29 09:08:17;;;;;;;0.70;0.50;;;10.30;99.90;;;;;;5080951;28;20379;-80
2021/01/29 09:11:15;;;;;;;1.30;0.50;;;9.90;99.90;;;;;;5079493;28;20382;-79
2021/01/29 09:13:43;;;;;;;1.10;0.40;;;9.70;99.90;;;;;;5078619;28;20382;-79
2021/01/29 09:16:17;;;;;;;1.10;0.40;;;9.60;99.90;;;;;;5081265;28;20378;-78
2021/01/29 09:19:01;;;;;;;1.00;0.50;;;9.60;99.90;;;;;;5081478;28;20374;-81
2021/01/29 09:21:52;;;;;;;0.60;0.30;;;9.70;99.90;;;;;;5081332;28;20385;-84
2021/01/29 09:24:49;;;;;;;0.80;0.50;;;9.20;99.90;;;;;;5084824;28;20757;-79
2021/01/29 09:27:55;;;;;;;0.90;0.63;;;9.30;99.90;;;;;;5085297;28;20374;-79
2021/01/29 09:30:32;;;;;;;0.85;0.50;;;9.50;99.90;;;;;;5084767;28;21070;-78
2021/01/29 09:33:22;;;;;;;0.60;0.40;;;9.50;99.90;;;;;;5082051;28;20386;-80
2021/01/29 09:35:57;;;;;;;0.70;0.50;;;9.10;99.90;;;;;;5084025;28;20797;-82
2021/01/29 09:38:32;;;;;;;0.47;0.40;;;9.60;99.90;;;;;;5083436;28;20414;-79
2021/01/29 09:41:02;;;;;;;1.10;0.60;;;9.40;99.90;;;;;;5082080;28;20382;-82
2021/01/29 09:43:43;;;;;;;1.20;0.50;;;9.90;99.90;;;;;;5082777;28;20440;-79
2021/01/29 09:46:10;;;;;;;2.27;0.70;;;9.50;99.90;;;;;;5084530;28;20505;-80
2021/01/29 09:48:39;;;;;;;1.10;0.60;;;9.80;99.90;;;;;;5083802;28;20508;-78
2021/01/29 09:51:33;;;;;;;1.70;0.60;;;9.70;99.90;;;;;;5082379;28;20841;-82
2021/01/29 09:54:18;;;;;;;1.40;0.60;;;9.90;99.90;;;;;;5079845;28;20379;-81
2021/01/29 09:56:51;;;;;;;1.67;0.50;;;9.90;99.90;;;;;;5082037;28;20513;-80
2021/01/29 09:59:30;;;;;;;0.70;0.50;;;9.90;99.90;;;;;;5084519;28;20455;-79
2021/01/29 10:02:21;;;;;;;0.57;0.40;;;8.30;99.90;;;;;;5082413;28;20648;-83
2021/01/29 10:05:17;;;;;;;1.27;0.50;;;9.70;99.90;;;;;;5084155;28;20385;-81
2021/01/29 10:08:07;;;;;;;1.25;0.40;;;9.40;99.90;;;;;;5066294;28;20429;-80
2021/01/29 10:10:59;;;;;;;1.90;0.70;;;9.60;99.90;;;;;;5083408;28;20386;-79
2021/01/29 10:13:31;;;;;;;0.63;0.40;;;9.60;99.90;;;;;;5064509;28;20465;-78
2021/01/29 10:16:11;;;;;;;1.50;0.65;;;9.60;99.90;;;;;;5082029;28;20475;-77
2021/01/29 10:18:39;;;;;;;1.90;0.60;;;9.30;99.90;;;;;;5081296;28;20514;-80
2021/01/29 10:21:14;;;;;;;1.00;0.55;;;9.40;99.90;;;;;;5083797;28;20716;-80
2021/01/29 10:23:53;;;;;;;1.30;0.60;;;9.70;99.90;;;;;;5080053;28;20385;-78
2021/01/29 10:26:28;;;;;;;0.90;0.50;;;9.70;99.90;;;;;;5082543;28;20378;-77
2021/01/29 10:29:03;;;;;;;0.80;0.40;;;9.60;99.90;;;;;;5072270;28;20914;-76
2021/01/29 10:31:38;;;;;;;0.40;0.40;;;9.50;99.90;;;;;;5075576;28;20390;-78
2021/01/29 10:34:33;;;;;;;1.50;0.73;;;9.60;99.90;;;;;;5068991;28;20908;-78
2021/01/29 10:37:13;;;;;;;0.68;0.50;;;11.50;99.90;;;;;;4998553;28;20440;-77
2021/01/29 10:40:07;;;;;;;1.00;0.50;;;9.90;99.90;;;;;;5079080;28;20820;-77
2021/01/29 10:42:46;;;;;;;0.50;0.50;;;9.90;99.90;;;;;;5080200;28;20393;-77
2021/01/29 10:45:17;;;;;;;0.70;0.40;;;10.10;99.90;;;;;;5081848;28;20380;-76
2021/01/29 10:48:02;;;;;;;0.70;0.30;;;10.10;99.90;;;;;;5084923;28;20854;-74
2021/01/29 10:50:33;;;;;;;0.80;0.60;;;10.80;99.90;;;;;;5070313;28;20940;-75
2021/01/29 10:53:08;;;;;;;0.50;0.40;;;10.00;99.90;;;;;;5068292;28;20583;-76
2021/01/29 10:55:38;;;;;;;0.90;0.50;;;10.50;99.90;;;;;;5069578;28;20842;-76
2021/01/29 10:58:27;;;;;;;0.50;0.40;;;10.40;99.90;;;;;;5049960;28;20417;-76
2021/01/29 11:01:06;;;;;;;1.50;0.50;;;10.50;99.90;;;;;;5068265;28;20386;-77
2021/01/29 11:04:05;;;;;;;1.00;0.40;;;10.20;99.90;;;;;;5068208;28;20458;-77
2021/01/29 11:06:59;;;;;;;0.80;0.47;;;10.10;99.90;;;;;;5070240;28;20913;-78
2021/01/29 11:09:35;;;;;;;1.45;0.30;;;10.20;99.90;;;;;;5065395;28;20390;-77
2021/01/29 11:12:18;;;;;;;2.58;0.47;;;10.20;99.90;;;;;;5070940;28;20374;-76
2021/01/29 11:15:04;;;;;;;0.90;0.50;;;10.00;99.90;;;;;;5071644;28;20894;-76
2021/01/29 11:17:35;;;;;;;1.60;0.50;;;10.40;99.90;;;;;;5020186;28;20470;-75
2021/01/29 11:20:10;;;;;;;0.90;0.30;;;10.40;99.90;;;;;;5069728;28;20944;-74
2021/01/29 11:22:46;;;;;;;1.95;0.45;;;10.40;99.90;;;;;;5078562;28;20501;-74
2021/01/29 11:25:44;;;;;;;1.30;0.50;;;10.30;99.90;;;;;;5078094;28;20775;-74
2021/01/29 11:28:12;;;;;;;1.75;0.40;;;10.10;99.90;;;;;;5068754;28;20430;-76
2021/01/29 11:30:50;;;;;;;0.60;0.50;;;10.60;99.90;;;;;;5061892;28;20868;-75
2021/01/29 11:33:28;;;;;;;1.70;0.40;;;10.40;99.90;;;;;;5076394;28;20969;-76
2021/01/29 11:36:10;;;;;;;1.10;0.77;;;10.20;99.90;;;;;;5076279;28;20425;-75
2021/01/29 11:38:52;;;;;;;1.40;0.40;;;10.30;99.90;;;;;;5077471;28;20392;-76
2021/01/29 11:41:28;;;;;;;2.30;0.40;;;10.00;99.90;;;;;;5079605;28;20385;-75
2021/01/29 11:44:24;;;;;;;1.08;0.35;;;9.80;99.90;;;;;;5076312;28;20382;-76
2021/01/29 11:47:12;;;;;;;1.00;0.40;;;9.70;99.90;;;;;;5078404;28;20377;-76
2021/01/29 11:50:01;;;;;;;0.68;0.40;;;9.70;99.90;;;;;;5079683;28;20693;-77
2021/01/29 11:52:33;;;;;;;1.10;0.25;;;9.80;99.90;;;;;;5078364;28;20436;-78
2021/01/29 11:55:27;;;;;;;0.40;0.30;;;9.40;99.90;;;;;;5075988;28;20798;-78
2021/01/29 11:57:52;;;;;;;0.90;0.40;;;9.90;99.90;;;;;;5081557;28;20615;-77
2021/01/29 12:00:24;;;;;;;0.70;0.40;;;9.60;99.90;;;;;;5080029;28;20398;-77
2021/01/29 12:03:07;;;;;;;0.70;0.40;;;8.50;99.90;;;;;;5081330;28;20405;-78
2021/01/29 12:06:11;;;;;;;1.10;0.30;;;7.80;99.90;;;;;;5081533;28;20489;-78
2021/01/29 12:08:44;;;;;;;0.68;0.30;;;8.60;99.90;;;;;;5080976;28;20405;-76
2021/01/29 12:11:20;;;;;;;0.80;0.30;;;8.70;99.90;;;;;;5081952;28;20404;-77
2021/01/29 12:14:06;;;;;;;1.50;0.47;;;8.40;99.90;;;;;;5078308;28;20437;-76
2021/01/29 12:16:34;;;;;;;0.60;0.45;;;8.20;99.90;;;;;;5080538;28;20409;-76
2021/01/29 12:19:03;;;;;;;1.08;0.50;;;9.70;99.90;;;;;;5077474;28;20396;-77
2021/01/29 12:21:29;;;;;;;1.52;0.30;;;8.40;99.90;;;;;;5081770;28;20793;-77
2021/01/29 12:24:06;;;;;;;0.93;0.70;;;8.30;99.90;;;;;;5079918;28;20895;-77
2021/01/29 12:26:56;;;;;;;0.57;0.40;;;8.40;99.90;;;;;;5079853;28;20378;-78
2021/01/29 12:29:41;;;;;;;1.25;0.50;;;9.00;99.90;;;;;;5065896;28;20401;-77
2021/01/29 12:32:22;;;;;;;1.00;0.50;;;8.20;99.90;;;;;;5079076;28;20488;-76
2021/01/29 12:34:56;;;;;;;0.60;0.38;;;8.30;99.90;;;;;;5080221;28;20441;-78
2021/01/29 12:37:28;;;;;;;0.60;0.40;;;8.40;99.90;;;;;;5064429;28;20401;-77
2021/01/29 12:40:34;;;;;;;0.70;0.60;;;8.90;99.90;;;;;;5077979;28;20378;-77
2021/01/29 12:43:28;;;;;;;0.50;0.50;;;8.60;99.90;;;;;;5081666;28;20783;-79
2021/01/29 12:46:15;;;;;;;0.80;0.40;;;8.70;99.90;;;;;;5071250;28;20797;-78
2021/01/29 12:48:48;;;;;;;0.90;0.55;;;8.50;99.90;;;;;;5078986;28;20426;-79
2021/01/29 12:51:29;;;;;;;0.50;0.50;;;8.70;99.90;;;;;;5079390;28;20395;-78
2021/01/29 12:54:18;;;;;;;1.95;0.70;;;9.30;99.90;;;;;;5080395;28;20754;-78
2021/01/29 12:56:44;;;;;;;0.85;0.52;;;8.70;99.90;;;;;;5081312;28;20429;-78
2021/01/29 12:59:12;;;;;;;1.50;0.60;;;9.30;99.90;;;;;;5080388;28;20398;-78
2021/01/29 13:01:59;;;;;;;0.95;0.50;;;9.00;99.90;;;;;;5083569;28;20786;-78
2021/01/29 13:04:40;;;;;;;3.05;0.90;;;9.00;99.90;;;;;;5083295;28;20390;-78
2021/01/29 13:07:18;;;;;;;1.90;0.70;;;9.10;99.90;;;;;;5085011;28;20398;-78
2021/01/29 13:10:02;;;;;;;1.10;0.63;;;9.10;99.90;;;;;;5083567;28;20412;-79
2021/01/29 13:13:06;;;;;;;1.00;0.55;;;9.20;99.90;;;;;;5085296;28;20987;-78
2021/01/29 13:15:52;;;;;;;2.70;0.85;;;9.50;99.90;;;;;;5084752;28;20382;-78
2021/01/29 13:18:23;;;;;;;3.10;0.80;;;9.30;99.90;;;;;;5082014;28;20417;-78
2021/01/29 13:20:52;;;;;;;3.00;0.90;;;10.20;99.90;;;;;;5084703;28;20386;-78
2021/01/29 13:23:21;;;;;;;2.40;0.60;;;9.40;99.90;;;;;;5083756;28;20473;-78
2021/01/29 13:25:57;;;;;;;2.65;1.23;;;10.20;99.90;;;;;;5083933;28;20428;-77
2021/01/29 13:28:23;;;;;;;3.78;0.70;;;;;;;;;;5081835;28;20394;-78
2021/01/29 13:30:48;;;;;;;2.72;1.33;;;10.00;99.90;;;;;;5063994;28;20393;-79
2021/01/29 13:33:26;;;;;;;2.83;0.60;;;9.80;99.90;;;;;;5082158;28;20397;-78
2021/01/29 13:36:15;;;;;;;1.30;0.70;;;10.10;99.90;;;;;;5061128;28;20418;-78
2021/01/29 13:38:40;;;;;;;2.28;0.80;;;9.70;99.90;;;;;;5062128;28;21006;-77
2021/01/29 13:41:23;;;;;;;4.30;1.03;;;10.40;99.90;;;;;;5063840;28;20480;-77
2021/01/29 13:43:50;;;;;;;3.97;1.05;;;10.00;99.90;;;;;;5063627;28;20726;-78
2021/01/29 13:46:29;;;;;;;2.50;0.88;;;9.70;99.90;;;;;;5061114;28;20453;-75
2021/01/29 13:49:21;;;;;;;1.45;0.75;;;9.80;99.90;;;;;;5058830;28;20427;-78
2021/01/29 13:51:50;;;;;;;2.10;0.40;;;10.10;99.90;;;;;;5062090;28;20396;-75
2021/01/29 13:54:28;;;;;;;1.60;0.63;;;10.20;99.90;;;;;;5064324;28;20384;-76
2021/01/29 13:56:56;;;;;;;2.65;0.70;;;9.80;99.90;;;;;;5064352;28;21013;-75